Time;durP1;ratioP1;P1;durP2;ratioP2;P2;SDS_P1;SDS_P2;PMS_P1;PMS_P2;Temp;Humidity;BMP_temperature;BMP_pressure;BME280_temperature;BME280_humidity;BME280_pressure;Samples;Min_cycle;Max_cycle;Signal;HPM_P1;HPM_P2
2021/08/07 00:01:36;;;;;;;2.17;1.22;;;15.30;99.90;;;;;;2034567;70;21023;-75
2021/08/07 00:04:02;;;;;;;2.87;1.37;;;15.30;99.90;;;;;;2034695;70;21062;-75
2021/08/07 00:06:28;;;;;;;1.70;1.42;;;15.30;99.90;;;;;;2034606;70;21047;-74
2021/08/07 00:08:55;;;;;;;4.37;1.40;;;15.20;99.90;;;;;;2034380;70;21115;-76
2021/08/07 00:11:21;;;;;;;3.85;1.75;;;15.20;99.90;;;;;;2034370;70;21559;-76
2021/08/07 00:13:47;;;;;;;4.80;1.62;;;15.20;99.90;;;;;;2034353;70;21478;-76
2021/08/07 00:16:13;;;;;;;2.27;1.98;;;15.20;99.90;;;;;;2034342;70;21095;-76
2021/08/07 00:18:40;;;;;;;5.12;1.72;;;15.20;99.90;;;;;;2034360;70;21054;-77
2021/08/07 00:21:06;;;;;;;1.65;1.55;;;15.20;99.90;;;;;;2026163;69;21059;-76
2021/08/07 00:23:32;;;;;;;2.67;1.95;;;15.20;99.90;;;;;;2034350;70;21011;-76
2021/08/07 00:25:58;;;;;;;5.30;2.50;;;15.20;99.90;;;;;;2034261;70;21062;-76
2021/08/07 00:28:24;;;;;;;3.33;1.90;;;15.30;99.90;;;;;;2034316;69;21043;-76
2021/08/07 00:30:50;;;;;;;2.47;1.90;;;15.30;99.90;;;;;;2034298;70;21098;-76
2021/08/07 00:33:16;;;;;;;4.67;1.77;;;15.30;99.90;;;;;;2034314;70;21019;-76
2021/08/07 00:35:43;;;;;;;2.02;1.72;;;15.40;99.90;;;;;;2034325;70;21038;-76
2021/08/07 00:38:09;;;;;;;3.77;2.15;;;15.40;99.90;;;;;;2034349;69;21054;-76
2021/08/07 00:40:35;;;;;;;2.12;1.55;;;15.50;99.90;;;;;;2034306;70;21038;-76
2021/08/07 00:43:01;;;;;;;2.58;1.77;;;15.50;99.90;;;;;;2034323;69;21532;-76
2021/08/07 00:45:27;;;;;;;2.90;1.55;;;15.50;99.90;;;;;;2034301;70;21532;-76
2021/08/07 00:47:53;;;;;;;5.10;1.67;;;15.50;99.90;;;;;;2034314;70;21530;-76
2021/08/07 00:50:19;;;;;;;3.85;1.60;;;15.60;99.90;;;;;;2034360;69;21556;-76
2021/08/07 00:52:45;;;;;;;4.45;1.67;;;15.70;99.90;;;;;;2034204;70;21471;-75
2021/08/07 00:55:11;;;;;;;2.52;1.60;;;15.70;99.90;;;;;;2034403;70;21514;-75
2021/08/07 00:57:38;;;;;;;2.12;1.65;;;15.80;99.90;;;;;;2034207;70;21066;-76
2021/08/07 01:00:04;;;;;;;8.30;2.12;;;15.80;99.90;;;;;;2034402;70;21120;-76
2021/08/07 01:02:30;;;;;;;1.80;1.40;;;15.70;99.90;;;;;;2034199;70;21099;-75
2021/08/07 01:04:56;;;;;;;4.08;1.77;;;15.70;99.90;;;;;;2034372;70;21047;-75
2021/08/07 01:07:22;;;;;;;1.77;1.47;;;15.80;99.90;;;;;;2034210;70;21064;-76
2021/08/07 01:09:48;;;;;;;2.05;1.52;;;15.90;99.90;;;;;;2034507;70;21123;-75
2021/08/07 01:12:14;;;;;;;3.25;1.62;;;15.90;99.90;;;;;;2034216;70;21060;-76
2021/08/07 01:14:42;;;;;;;3.90;1.87;;;15.90;99.90;;;;;;2034397;70;21089;-76
2021/08/07 01:17:08;;;;;;;4.45;2.10;;;15.90;99.90;;;;;;2034200;70;21503;-75
2021/08/07 01:19:34;;;;;;;1.98;1.70;;;15.90;99.90;;;;;;2034411;70;21463;-76
2021/08/07 01:22:00;;;;;;;3.92;1.60;;;15.90;99.90;;;;;;2034306;70;21550;-76
2021/08/07 01:24:26;;;;;;;3.75;2.00;;;15.90;99.90;;;;;;2034357;70;21531;-76
2021/08/07 01:26:54;;;;;;;2.35;1.60;;;15.80;99.90;;;;;;2034309;70;21515;-76
2021/08/07 01:29:20;;;;;;;4.25;1.55;;;15.80;99.90;;;;;;2034185;70;21188;-76
2021/08/07 01:31:46;;;;;;;4.03;2.20;;;15.90;99.90;;;;;;2034343;70;21052;-76
2021/08/07 01:34:12;;;;;;;4.42;1.50;;;15.80;99.90;;;;;;2034292;70;21075;-76
2021/08/07 01:36:39;;;;;;;5.55;1.90;;;15.80;99.90;;;;;;2034293;70;21083;-76
2021/08/07 01:39:05;;;;;;;2.70;1.60;;;15.80;99.90;;;;;;2034281;70;21175;-76
2021/08/07 01:41:31;;;;;;;4.35;1.98;;;15.80;99.90;;;;;;2034268;70;21499;-76
2021/08/07 01:43:57;;;;;;;2.85;1.52;;;15.70;99.90;;;;;;2034338;70;21411;-76
2021/08/07 01:46:23;;;;;;;4.03;1.50;;;15.70;99.90;;;;;;2034242;70;21613;-76
2021/08/07 01:48:49;;;;;;;2.77;1.70;;;15.80;99.90;;;;;;2034351;70;21422;-76
2021/08/07 01:51:15;;;;;;;2.67;1.50;;;15.80;99.90;;;;;;2034283;70;21504;-75
2021/08/07 01:53:41;;;;;;;2.95;1.50;;;15.80;99.90;;;;;;2034354;70;21583;-76
2021/08/07 01:56:07;;;;;;;3.85;1.67;;;15.80;99.90;;;;;;2034520;70;21458;-76
2021/08/07 01:58:34;;;;;;;4.37;1.80;;;15.80;99.90;;;;;;2034398;70;21046;-75
2021/08/07 02:01:00;;;;;;;3.25;1.50;;;15.80;99.90;;;;;;2034415;70;21015;-76
2021/08/07 02:03:26;;;;;;;2.92;1.70;;;15.80;99.90;;;;;;2034296;70;21018;-75
2021/08/07 02:05:52;;;;;;;1.85;1.37;;;15.80;99.90;;;;;;2034498;70;21139;-75
2021/08/07 02:08:18;;;;;;;11.80;1.70;;;15.70;99.90;;;;;;2033358;70;21080;-76
2021/08/07 02:10:44;;;;;;;2.58;1.65;;;15.70;99.90;;;;;;2025558;70;21020;-75
2021/08/07 02:13:10;;;;;;;2.67;1.60;;;15.70;99.90;;;;;;2015453;70;21131;-76
2021/08/07 02:15:36;;;;;;;2.92;1.75;;;15.70;99.90;;;;;;2005402;70;21051;-75
2021/08/07 02:18:03;;;;;;;3.65;1.45;;;15.70;99.90;;;;;;2034275;70;21083;-75
2021/08/07 02:20:29;;;;;;;2.60;1.60;;;15.70;99.90;;;;;;2034533;69;21043;-76
2021/08/07 02:22:55;;;;;;;5.03;1.90;;;15.70;99.90;;;;;;2034618;70;21046;-76
2021/08/07 02:25:21;;;;;;;2.42;1.70;;;15.70;99.90;;;;;;2026094;70;21109;-76
2021/08/07 02:27:47;;;;;;;3.92;1.98;;;15.80;99.90;;;;;;2034501;70;21126;-75
2021/08/07 02:30:13;;;;;;;3.02;1.70;;;15.80;99.90;;;;;;2009011;70;21051;-75
2021/08/07 02:32:39;;;;;;;3.30;1.47;;;15.70;99.90;;;;;;2033920;70;21071;-75
2021/08/07 02:35:05;;;;;;;2.35;1.60;;;15.80;99.90;;;;;;2022434;71;21043;-76
2021/08/07 02:37:35;;;;;;;5.67;1.42;;;15.80;99.90;;;;;;2024754;69;21062;-76
2021/08/07 02:40:01;;;;;;;3.60;1.62;;;15.70;99.90;;;;;;2034641;70;21169;-76
2021/08/07 02:42:27;;;;;;;4.08;1.67;;;15.70;99.90;;;;;;2034284;69;21076;-75
2021/08/07 02:44:54;;;;;;;2.58;1.60;;;15.80;99.90;;;;;;2034563;70;21062;-75
2021/08/07 02:47:20;;;;;;;3.40;1.82;;;15.70;99.90;;;;;;2034396;70;21051;-76
2021/08/07 02:49:46;;;;;;;2.80;1.70;;;15.80;99.90;;;;;;2034378;70;21139;-76
2021/08/07 02:52:12;;;;;;;6.45;2.00;;;15.80;99.90;;;;;;2034380;70;21060;-76
2021/08/07 02:54:38;;;;;;;1.67;1.30;;;15.80;99.90;;;;;;2034345;70;21104;-75
2021/08/07 02:57:04;;;;;;;2.55;1.50;;;15.80;99.90;;;;;;2034369;70;21151;-76
2021/08/07 02:59:30;;;;;;;3.33;1.65;;;15.80;99.90;;;;;;2034413;70;21019;-76
2021/08/07 03:01:56;;;;;;;2.72;1.40;;;15.80;99.90;;;;;;2034255;70;21059;-76
2021/08/07 03:04:23;;;;;;;2.52;1.47;;;15.80;99.90;;;;;;2034333;70;21419;-76
2021/08/07 03:06:49;;;;;;;3.10;1.40;;;15.80;99.90;;;;;;2034381;70;21485;-76
2021/08/07 03:09:15;;;;;;;2.35;1.40;;;15.80;99.90;;;;;;2034378;70;21380;-76
2021/08/07 03:11:41;;;;;;;2.47;1.47;;;15.70;99.90;;;;;;2034326;70;21591;-76
2021/08/07 03:14:07;;;;;;;2.70;1.60;;;15.70;99.90;;;;;;2034546;70;21459;-76
2021/08/07 03:16:33;;;;;;;3.37;1.72;;;15.60;99.90;;;;;;2034349;70;21478;-76
2021/08/07 03:18:59;;;;;;;3.95;1.60;;;15.50;99.90;;;;;;2034385;70;21023;-76
2021/08/07 03:21:25;;;;;;;4.08;1.77;;;15.40;99.90;;;;;;2034380;70;21124;-76
2021/08/07 03:23:52;;;;;;;2.95;1.57;;;15.30;99.90;;;;;;2034366;70;21098;-76
2021/08/07 03:26:18;;;;;;;3.00;1.40;;;15.20;99.90;;;;;;2034339;70;21059;-76
2021/08/07 03:28:44;;;;;;;2.37;1.77;;;15.10;99.90;;;;;;2034391;70;21023;-75
2021/08/07 03:31:10;;;;;;;2.67;1.60;;;15.10;99.90;;;;;;2034350;70;21124;-76
2021/08/07 03:33:36;;;;;;;6.67;1.70;;;15.00;99.90;;;;;;2034370;70;21051;-76
2021/08/07 03:36:02;;;;;;;5.22;2.00;;;15.00;99.90;;;;;;2034356;70;21128;-75
2021/08/07 03:38:28;;;;;;;7.70;1.95;;;15.00;99.90;;;;;;2034389;70;21023;-76
2021/08/07 03:40:55;;;;;;;3.45;1.75;;;14.90;99.90;;;;;;2034347;70;21042;-76
2021/08/07 03:43:21;;;;;;;3.62;1.50;;;14.90;99.90;;;;;;2034318;70;21592;-76
2021/08/07 03:45:47;;;;;;;2.27;1.57;;;14.90;99.90;;;;;;2034329;69;21499;-77
2021/08/07 03:48:14;;;;;;;8.28;1.62;;;14.90;99.90;;;;;;2034425;70;21496;-75
2021/08/07 03:50:40;;;;;;;3.70;1.60;;;14.90;99.90;;;;;;2034241;70;21091;-75
2021/08/07 03:53:06;;;;;;;5.08;1.80;;;14.90;99.90;;;;;;2034448;69;21054;-76
2021/08/07 03:55:32;;;;;;;6.87;2.00;;;14.90;99.90;;;;;;2034531;70;21131;-75
2021/08/07 03:58:01;;;;;;;3.60;1.90;;;14.90;99.90;;;;;;2034543;70;21132;-76
2021/08/07 04:00:27;;;;;;;4.70;1.40;;;14.90;99.90;;;;;;2034525;70;21459;-75
2021/08/07 04:02:54;;;;;;;2.55;1.57;;;14.90;99.90;;;;;;2034235;70;21515;-76
2021/08/07 04:05:20;;;;;;;3.75;1.80;;;14.90;99.90;;;;;;2034393;70;21539;-76
2021/08/07 04:07:46;;;;;;;4.72;2.25;;;14.80;99.90;;;;;;2034224;69;21515;-76
2021/08/07 04:10:12;;;;;;;7.03;1.62;;;14.80;99.90;;;;;;2034433;70;21518;-76
2021/08/07 04:12:38;;;;;;;4.87;1.80;;;14.80;99.90;;;;;;2034220;70;21075;-76
2021/08/07 04:15:04;;;;;;;4.47;1.47;;;14.90;99.90;;;;;;2034337;70;21079;-75
2021/08/07 04:17:30;;;;;;;1.65;1.50;;;14.90;99.90;;;;;;2034226;70;21079;-75
2021/08/07 04:19:56;;;;;;;5.10;1.98;;;14.90;99.90;;;;;;2034420;70;21043;-75
2021/08/07 04:22:23;;;;;;;1.98;1.62;;;14.90;99.90;;;;;;2034250;70;21164;-76
2021/08/07 04:24:49;;;;;;;3.37;1.77;;;14.90;99.90;;;;;;2034387;70;21054;-76
2021/08/07 04:27:15;;;;;;;5.72;2.10;;;14.90;99.90;;;;;;2034211;70;21156;-75
2021/08/07 04:29:41;;;;;;;2.02;1.65;;;14.90;99.90;;;;;;2034420;70;21047;-75
2021/08/07 04:32:07;;;;;;;13.35;2.12;;;15.00;99.90;;;;;;2034318;70;21015;-75
2021/08/07 04:34:33;;;;;;;4.50;1.72;;;15.00;99.90;;;;;;2034401;70;21054;-76
2021/08/07 04:36:59;;;;;;;2.80;1.32;;;15.10;99.90;;;;;;2034531;70;21067;-76
2021/08/07 04:39:25;;;;;;;2.98;1.80;;;15.20;99.90;;;;;;2034548;69;21075;-75
2021/08/07 04:41:52;;;;;;;1.92;1.60;;;15.20;99.90;;;;;;2034532;69;21098;-75
2021/08/07 04:44:18;;;;;;;3.40;1.50;;;15.20;99.90;;;;;;2034540;69;21087;-75
2021/08/07 04:46:44;;;;;;;2.15;1.47;;;15.30;99.90;;;;;;2034482;70;21027;-75
2021/08/07 04:49:10;;;;;;;1.55;1.45;;;15.30;99.90;;;;;;2034494;70;21136;-75
2021/08/07 04:51:36;;;;;;;2.37;1.60;;;15.30;99.90;;;;;;2034204;70;21161;-75
2021/08/07 04:54:04;;;;;;;3.77;1.90;;;15.30;99.90;;;;;;1999621;70;21175;-75
2021/08/07 04:56:30;;;;;;;5.75;1.70;;;15.30;99.90;;;;;;1983961;71;21055;-75
2021/08/07 04:58:56;;;;;;;2.67;1.70;;;15.30;99.90;;;;;;2033844;70;21037;-75
2021/08/07 05:01:22;;;;;;;4.72;1.90;;;15.20;99.90;;;;;;2034526;70;21051;-75
2021/08/07 05:03:48;;;;;;;6.97;1.87;;;15.20;99.90;;;;;;2034550;70;21124;-76
2021/08/07 05:06:14;;;;;;;2.65;1.60;;;15.20;99.90;;;;;;2034496;70;21058;-75
2021/08/07 05:08:41;;;;;;;2.98;1.45;;;15.30;99.90;;;;;;2034523;69;21042;-74
2021/08/07 05:11:07;;;;;;;2.05;1.32;;;15.40;99.90;;;;;;2034537;70;21039;-74
2021/08/07 05:13:36;;;;;;;2.37;1.47;;;15.40;99.90;;;;;;2034311;70;21045;-74
2021/08/07 05:16:02;;;;;;;3.35;1.80;;;15.60;99.90;;;;;;2032125;70;21182;-74
2021/08/07 05:18:28;;;;;;;4.10;1.70;;;15.70;99.90;;;;;;2034420;70;21027;-74
2021/08/07 05:20:54;;;;;;;2.65;1.52;;;15.70;99.90;;;;;;2034392;70;21172;-71
2021/08/07 05:23:21;;;;;;;6.50;2.05;;;15.80;99.90;;;;;;2037554;69;21148;-71
2021/08/07 05:25:47;;;;;;;3.12;1.60;;;15.80;99.90;;;;;;2037919;70;21039;-72
2021/08/07 05:28:13;;;;;;;3.40;1.70;;;15.80;99.90;;;;;;2026673;69;21419;-74
2021/08/07 05:30:39;;;;;;;3.85;1.50;;;16.10;99.90;;;;;;2033881;70;21551;-74
2021/08/07 05:33:05;;;;;;;2.87;1.72;;;16.20;99.90;;;;;;1983264;71;21521;-74
2021/08/07 05:35:31;;;;;;;3.47;1.62;;;16.10;99.90;;;;;;2010719;70;21565;-74
2021/08/07 05:37:57;;;;;;;3.65;1.77;;;16.00;99.90;;;;;;2033696;70;21499;-74
2021/08/07 05:40:23;;;;;;;3.90;1.70;;;16.00;99.90;;;;;;2034556;69;21482;-74
2021/08/07 05:42:50;;;;;;;1.62;1.20;;;16.00;99.90;;;;;;2034366;70;21083;-75
2021/08/07 05:45:16;;;;;;;2.08;1.30;;;16.10;99.90;;;;;;2034497;70;21055;-74
2021/08/07 05:47:42;;;;;;;2.00;1.45;;;16.30;99.90;;;;;;2034337;70;21100;-74
2021/08/07 05:50:08;;;;;;;3.52;1.42;;;16.30;99.90;;;;;;2034521;70;21050;-75
2021/08/07 05:52:34;;;;;;;3.55;2.00;;;16.30;99.90;;;;;;2034349;70;21087;-74
2021/08/07 05:55:00;;;;;;;2.72;1.60;;;16.20;99.90;;;;;;2034546;70;21042;-74
2021/08/07 05:57:26;;;;;;;2.83;1.45;;;16.30;99.90;;;;;;2034490;70;21055;-74
2021/08/07 05:59:53;;;;;;;7.08;1.70;;;16.50;99.90;;;;;;2034412;70;21035;-74
2021/08/07 06:02:19;;;;;;;1.52;1.37;;;16.70;99.90;;;;;;2034412;70;21054;-74
2021/08/07 06:04:45;;;;;;;2.85;2.00;;;16.80;99.90;;;;;;2034475;70;21054;-74
2021/08/07 06:07:11;;;;;;;3.22;1.60;;;17.20;99.90;;;;;;2034304;70;21091;-74
2021/08/07 06:09:37;;;;;;;10.90;1.45;;;17.50;99.90;;;;;;2034481;70;21023;-74
2021/08/07 06:12:03;;;;;;;3.42;1.40;;;17.60;99.90;;;;;;2034286;70;21091;-74
2021/08/07 06:14:29;;;;;;;4.33;1.75;;;17.80;99.90;;;;;;2034537;70;21062;-74
2021/08/07 06:16:55;;;;;;;5.53;1.47;;;17.80;99.90;;;;;;2034515;70;21520;-74
2021/08/07 06:19:22;;;;;;;4.33;1.45;;;17.80;99.90;;;;;;2034416;70;21443;-74
2021/08/07 06:21:48;;;;;;;2.37;1.30;;;17.80;99.90;;;;;;2034297;70;21475;-74
2021/08/07 06:24:14;;;;;;;4.70;1.45;;;17.70;99.90;;;;;;2034495;70;21490;-74
2021/08/07 06:26:40;;;;;;;5.62;1.65;;;17.70;99.90;;;;;;2034381;70;21478;-74
2021/08/07 06:29:06;;;;;;;4.92;1.70;;;17.70;99.90;;;;;;2034395;70;21448;-74
2021/08/07 06:31:32;;;;;;;2.80;1.60;;;17.70;99.90;;;;;;2034588;70;21507;-74
2021/08/07 06:33:58;;;;;;;4.87;1.52;;;17.60;99.90;;;;;;2034371;70;21176;-74
2021/08/07 06:36:24;;;;;;;1.10;1.00;;;17.70;99.90;;;;;;2034405;69;21054;-75
2021/08/07 06:38:50;;;;;;;2.92;1.37;;;17.70;99.90;;;;;;2034343;70;21078;-75
2021/08/07 06:41:17;;;;;;;9.08;1.50;;;17.80;99.90;;;;;;2034376;70;21050;-75
2021/08/07 06:43:43;;;;;;;3.47;1.60;;;18.10;99.90;;;;;;2034385;70;21171;-75
2021/08/07 06:46:09;;;;;;;3.35;1.30;;;18.30;99.90;;;;;;2034353;69;21062;-75
2021/08/07 06:48:37;;;;;;;3.45;1.35;;;18.50;99.90;;;;;;2034345;70;21027;-75
2021/08/07 06:51:03;;;;;;;5.28;1.65;;;18.70;99.90;;;;;;2034235;70;21475;-74
2021/08/07 06:53:29;;;;;;;3.27;0.90;;;18.90;99.90;;;;;;2034397;70;21602;-80
2021/08/07 06:55:55;;;;;;;2.37;1.12;;;19.20;99.90;;;;;;2034364;70;21470;-74
2021/08/07 06:58:21;;;;;;;7.65;1.70;;;19.40;99.90;;;;;;2034322;70;21035;-74
2021/08/07 07:00:47;;;;;;;8.08;1.32;;;19.10;99.90;;;;;;2034606;70;21128;-74
2021/08/07 07:03:13;;;;;;;2.72;1.15;;;19.10;99.90;;;;;;2034395;70;21039;-74
2021/08/07 07:05:40;;;;;;;5.25;1.62;;;19.40;99.90;;;;;;2034390;70;21217;-75
2021/08/07 07:08:06;;;;;;;2.87;1.15;;;19.70;99.90;;;;;;2034502;70;21011;-74
2021/08/07 07:10:32;;;;;;;3.47;1.25;;;19.90;99.90;;;;;;2034409;70;21042;-72
2021/08/07 07:12:58;;;;;;;2.35;1.12;;;19.70;99.90;;;;;;2034368;70;21080;-73
2021/08/07 07:15:24;;;;;;;4.53;1.10;;;19.90;99.90;;;;;;2034468;70;21042;-72
2021/08/07 07:17:50;;;;;;;3.15;1.00;;;20.40;99.90;;;;;;2034275;70;21068;-71
2021/08/07 07:20:17;;;;;;;3.92;1.30;;;20.60;99.90;;;;;;2034439;70;21124;-73
2021/08/07 07:22:43;;;;;;;1.32;1.07;;;21.10;99.90;;;;;;2034258;70;21087;-73
2021/08/07 07:25:09;;;;;;;2.75;1.20;;;21.90;99.90;;;;;;2034425;70;21592;-73
2021/08/07 07:27:36;;;;;;;1.75;1.17;;;22.60;99.90;;;;;;2034564;69;21443;-73
2021/08/07 07:30:02;;;;;;;4.78;1.50;;;23.30;99.90;;;;;;2034258;70;21042;-73
2021/08/07 07:32:28;;;;;;;4.70;1.35;;;23.40;99.90;;;;;;2034375;70;21186;-73
2021/08/07 07:34:54;;;;;;;3.05;1.20;;;23.20;99.90;;;;;;2034448;70;21135;-73
2021/08/07 07:37:20;;;;;;;1.32;1.05;;;22.60;99.90;;;;;;2034472;70;21035;-73
2021/08/07 07:39:46;;;;;;;2.58;1.25;;;22.40;99.90;;;;;;2034357;70;21016;-72
2021/08/07 07:42:12;;;;;;;2.12;0.95;;;22.20;99.90;;;;;;2034397;70;21105;-73
2021/08/07 07:44:39;;;;;;;2.87;1.10;;;22.00;99.90;;;;;;2034438;70;21027;-73
2021/08/07 07:47:05;;;;;;;4.12;1.37;;;21.40;99.90;;;;;;2031965;70;21140;-74
2021/08/07 07:49:31;;;;;;;3.37;1.10;;;21.40;99.90;;;;;;2034311;69;21011;-74
2021/08/07 07:51:57;;;;;;;2.67;1.20;;;21.50;99.90;;;;;;2034261;70;21040;-73
2021/08/07 07:54:23;;;;;;;3.45;1.42;;;21.70;99.90;;;;;;2034328;70;21051;-73
2021/08/07 07:56:49;;;;;;;2.50;1.10;;;21.80;99.90;;;;;;2034439;70;21050;-74
2021/08/07 07:59:20;;;;;;;4.05;1.15;;;22.10;99.90;;;;;;2034309;70;21015;-74
2021/08/07 08:01:43;;;;;;;3.98;1.10;;;21.90;99.90;;;;;;2032089;69;21075;-73
2021/08/07 08:04:09;;;;;;;3.00;1.12;;;22.20;99.90;;;;;;2034404;70;21047;-75
2021/08/07 08:06:35;;;;;;;3.72;1.47;;;23.20;99.90;;;;;;2034285;70;21058;-75
2021/08/07 08:09:02;;;;;;;3.27;1.30;;;24.10;99.90;;;;;;2034312;70;21054;-72
2021/08/07 08:11:28;;;;;;;3.67;1.60;;;24.20;99.90;;;;;;2034391;70;21038;-73
2021/08/07 08:13:54;;;;;;;2.35;1.32;;;24.40;99.90;;;;;;2034290;70;21139;-73
2021/08/07 08:16:20;;;;;;;2.60;1.20;;;23.90;99.90;;;;;;2034437;70;21488;-72
2021/08/07 08:18:46;;;;;;;2.77;1.20;;;23.90;99.90;;;;;;2034246;69;21535;-74
2021/08/07 08:21:12;;;;;;;6.58;1.37;;;23.10;99.90;;;;;;2034259;70;21580;-70
2021/08/07 08:23:38;;;;;;;4.25;1.70;;;23.50;99.90;;;;;;2034176;70;21459;-75
2021/08/07 08:26:04;;;;;;;1.85;1.10;;;23.20;99.90;;;;;;2034406;69;21474;-75
2021/08/07 08:28:31;;;;;;;6.75;1.30;;;23.00;99.90;;;;;;2034228;70;21527;-74
2021/08/07 08:30:57;;;;;;;3.35;1.30;;;22.60;99.90;;;;;;2034400;70;21535;-76
2021/08/07 08:33:23;;;;;;;3.08;1.30;;;22.40;99.90;;;;;;2034230;70;21111;-72
2021/08/07 08:35:49;;;;;;;5.33;1.40;;;21.90;99.90;;;;;;2034407;70;21071;-72
2021/08/07 08:38:15;;;;;;;9.38;1.50;;;21.80;99.90;;;;;;2034276;70;21068;-73
2021/08/07 08:40:41;;;;;;;3.25;1.15;;;22.00;99.90;;;;;;2034372;70;21046;-72
2021/08/07 08:43:07;;;;;;;3.05;1.27;;;22.10;99.90;;;;;;2034221;69;21075;-74
2021/08/07 08:45:33;;;;;;;2.47;1.10;;;22.40;99.90;;;;;;2034439;70;21162;-71
2021/08/07 08:48:00;;;;;;;4.70;1.30;;;22.60;99.90;;;;;;2034138;70;21156;-72
2021/08/07 08:50:26;;;;;;;4.65;1.20;;;22.90;99.90;;;;;;2034374;70;21041;-72
2021/08/07 08:52:52;;;;;;;5.22;1.40;;;23.20;99.90;;;;;;2034316;70;21124;-75
2021/08/07 08:55:18;;;;;;;2.30;1.17;;;23.20;99.90;;;;;;2034383;70;21115;-73
2021/08/07 08:57:44;;;;;;;6.92;1.07;;;23.30;99.90;;;;;;2034199;70;21079;-73
2021/08/07 09:00:10;;;;;;;2.75;1.10;;;22.40;99.90;;;;;;2034218;70;21067;-73
2021/08/07 09:02:37;;;;;;;2.50;1.15;;;22.60;99.90;;;;;;2034503;70;21058;-73
2021/08/07 09:05:03;;;;;;;3.08;1.40;;;22.50;99.90;;;;;;2034431;70;21143;-74
2021/08/07 09:07:29;;;;;;;2.52;1.17;;;22.50;99.90;;;;;;2034391;70;21583;-75
2021/08/07 09:09:55;;;;;;;3.15;1.40;;;22.60;99.90;;;;;;2034467;69;21402;-73
2021/08/07 09:12:21;;;;;;;2.52;0.95;;;22.90;99.90;;;;;;2034604;70;21451;-76
2021/08/07 09:14:50;;;;;;;2.60;1.35;;;22.80;99.90;;;;;;2034331;70;21442;-76
2021/08/07 09:17:16;;;;;;;5.90;1.22;;;22.60;99.90;;;;;;2034342;70;21054;-74
2021/08/07 09:19:42;;;;;;;4.05;1.55;;;22.50;99.90;;;;;;2034475;69;21071;-74
2021/08/07 09:22:09;;;;;;;3.72;1.25;;;22.90;99.90;;;;;;2034415;70;21062;-73
2021/08/07 09:24:35;;;;;;;2.52;1.27;;;22.70;99.90;;;;;;2034518;70;21015;-75
2021/08/07 09:27:01;;;;;;;2.75;0.95;;;22.70;99.90;;;;;;2034303;70;21116;-74
2021/08/07 09:29:27;;;;;;;5.55;1.30;;;22.90;99.90;;;;;;2034499;70;21039;-73
2021/08/07 09:31:53;;;;;;;3.33;1.10;;;23.10;99.90;;;;;;2034284;70;21221;-73
2021/08/07 09:34:20;;;;;;;1.05;0.88;;;22.90;99.90;;;;;;2034547;70;21119;-77
2021/08/07 09:36:46;;;;;;;7.92;1.20;;;23.00;99.90;;;;;;2034298;70;21132;-76
2021/08/07 09:39:12;;;;;;;2.98;1.00;;;23.20;99.90;;;;;;2034210;70;21152;-73
2021/08/07 09:41:38;;;;;;;4.10;1.15;;;23.20;99.90;;;;;;2034368;70;21446;-76
2021/08/07 09:44:04;;;;;;;3.77;1.02;;;23.10;99.90;;;;;;2027410;69;21559;-74
2021/08/07 09:46:30;;;;;;;2.58;0.90;;;23.10;99.90;;;;;;2013490;70;21478;-73
2021/08/07 09:48:56;;;;;;;6.92;1.30;;;23.00;99.90;;;;;;2015696;70;21471;-73
2021/08/07 09:51:23;;;;;;;1.85;1.00;;;22.60;99.90;;;;;;2034361;69;21451;-73
2021/08/07 09:53:49;;;;;;;2.50;1.10;;;22.30;99.90;;;;;;2025443;70;21462;-73
2021/08/07 09:56:15;;;;;;;2.10;1.40;;;22.20;99.90;;;;;;2034499;70;21498;-73
2021/08/07 09:58:41;;;;;;;2.55;1.27;;;22.10;99.90;;;;;;2034334;70;21071;-73
2021/08/07 10:01:07;;;;;;;3.95;1.40;;;22.10;99.90;;;;;;2034418;70;21040;-73
2021/08/07 10:03:34;;;;;;;2.20;1.15;;;21.90;99.90;;;;;;2034424;70;21097;-73
2021/08/07 10:06:00;;;;;;;1.70;1.10;;;21.80;99.90;;;;;;2024702;70;21058;-72
2021/08/07 10:08:26;;;;;;;2.35;1.45;;;21.70;99.90;;;;;;2034417;69;21054;-73
2021/08/07 10:10:52;;;;;;;10.10;1.57;;;21.60;99.90;;;;;;2016865;70;21019;-73
2021/08/07 10:13:18;;;;;;;2.45;1.12;;;21.20;99.90;;;;;;2032145;70;21055;-71
2021/08/07 10:15:44;;;;;;;1.70;0.95;;;21.20;99.90;;;;;;2034401;69;21476;-73
2021/08/07 10:18:10;;;;;;;3.12;1.20;;;21.20;99.90;;;;;;2034419;70;21050;-74
2021/08/07 10:20:37;;;;;;;2.65;1.20;;;21.00;99.90;;;;;;2035328;70;21056;-69
2021/08/07 10:23:03;;;;;;;5.35;1.47;;;21.00;99.90;;;;;;2034806;70;21081;-69
2021/08/07 10:25:29;;;;;;;3.00;1.42;;;20.70;99.90;;;;;;2034436;70;21160;-73
2021/08/07 10:27:56;;;;;;;2.12;1.20;;;20.60;99.90;;;;;;2034397;69;21050;-72
2021/08/07 10:30:22;;;;;;;1.72;1.10;;;20.50;99.90;;;;;;2034390;70;21156;-72
2021/08/07 10:32:48;;;;;;;1.85;1.25;;;20.30;99.90;;;;;;2034426;70;21076;-72
2021/08/07 10:35:14;;;;;;;2.05;1.10;;;20.10;99.90;;;;;;2034405;70;21043;-72
2021/08/07 10:37:40;;;;;;;3.98;1.35;;;20.10;99.90;;;;;;2034448;70;21043;-72
2021/08/07 10:40:06;;;;;;;4.00;1.10;;;20.10;99.90;;;;;;2034646;70;21112;-74
2021/08/07 10:42:33;;;;;;;2.60;1.10;;;20.00;99.90;;;;;;2034523;70;21042;-74
2021/08/07 10:44:59;;;;;;;1.17;1.07;;;19.90;99.90;;;;;;2034419;70;21031;-72
2021/08/07 10:47:26;;;;;;;7.10;1.57;;;19.70;99.90;;;;;;2034455;70;21051;-71
2021/08/07 10:49:52;;;;;;;2.55;1.52;;;19.70;99.90;;;;;;2034443;69;21047;-72
2021/08/07 10:52:18;;;;;;;4.72;1.30;;;19.80;99.90;;;;;;2034372;70;21062;-72
2021/08/07 10:54:44;;;;;;;2.67;1.30;;;19.80;99.90;;;;;;2034380;70;21088;-73
2021/08/07 10:57:10;;;;;;;2.85;1.45;;;19.70;99.90;;;;;;2034420;70;21059;-74
2021/08/07 10:59:36;;;;;;;4.83;1.20;;;19.70;99.90;;;;;;2034504;70;21040;-74
2021/08/07 11:02:02;;;;;;;3.15;1.20;;;19.80;99.90;;;;;;2034397;69;21043;-73
2021/08/07 11:04:29;;;;;;;3.30;1.05;;;19.70;99.90;;;;;;2034394;70;21039;-74
2021/08/07 11:06:55;;;;;;;2.77;1.30;;;19.70;99.90;;;;;;2034356;69;21027;-74
2021/08/07 11:09:21;;;;;;;4.00;1.40;;;19.80;99.90;;;;;;2034514;70;21031;-74
2021/08/07 11:11:47;;;;;;;5.92;1.87;;;19.80;99.90;;;;;;2034372;70;21120;-74
2021/08/07 11:14:13;;;;;;;4.62;1.50;;;19.80;99.90;;;;;;2034367;70;21093;-74
2021/08/07 11:16:39;;;;;;;4.35;1.60;;;19.60;99.90;;;;;;2034391;70;21050;-74
2021/08/07 11:19:06;;;;;;;7.33;2.20;;;19.60;99.90;;;;;;2034390;70;21019;-74
2021/08/07 11:21:32;;;;;;;9.48;1.95;;;19.50;99.90;;;;;;2034512;69;21461;-75
2021/08/07 11:23:58;;;;;;;3.02;1.70;;;19.40;99.90;;;;;;2034429;70;21470;-74
2021/08/07 11:26:24;;;;;;;6.05;1.65;;;19.40;99.90;;;;;;2034563;70;21518;-74
2021/08/07 11:28:50;;;;;;;7.37;2.27;;;19.40;99.90;;;;;;2034498;70;21459;-74
2021/08/07 11:31:16;;;;;;;2.45;1.52;;;19.10;99.90;;;;;;2034347;70;21466;-72
2021/08/07 11:33:42;;;;;;;2.33;1.80;;;19.10;99.90;;;;;;2034373;70;21470;-72
2021/08/07 11:36:08;;;;;;;3.72;1.90;;;19.00;99.90;;;;;;2034398;70;21540;-72
2021/08/07 11:38:35;;;;;;;3.83;1.62;;;18.90;99.90;;;;;;2034569;69;21101;-75
2021/08/07 11:41:02;;;;;;;3.25;1.65;;;18.90;99.90;;;;;;2034444;70;21026;-72
2021/08/07 11:43:28;;;;;;;4.95;2.02;;;18.80;99.90;;;;;;2034327;70;21123;-74
2021/08/07 11:45:54;;;;;;;3.10;1.42;;;18.80;99.90;;;;;;2034286;70;21144;-74
2021/08/07 11:48:20;;;;;;;3.20;1.62;;;18.90;99.90;;;;;;2034451;70;21024;-73
2021/08/07 11:50:46;;;;;;;2.30;1.60;;;19.10;99.90;;;;;;2034316;69;21058;-72
2021/08/07 11:53:13;;;;;;;2.85;1.60;;;19.20;99.90;;;;;;2034259;70;21039;-72
2021/08/07 11:55:39;;;;;;;8.53;1.52;;;19.30;99.90;;;;;;2034446;70;21042;-72
2021/08/07 11:58:05;;;;;;;16.25;1.62;;;19.20;99.90;;;;;;2034222;70;21149;-71
2021/08/07 12:00:33;;;;;;;3.20;1.57;;;19.20;99.90;;;;;;2034404;70;21068;-71
2021/08/07 12:02:59;;;;;;;2.58;1.50;;;19.30;99.90;;;;;;2034196;70;21532;-71
2021/08/07 12:05:25;;;;;;;4.87;1.52;;;19.30;99.90;;;;;;2034412;70;21120;-72
2021/08/07 12:07:51;;;;;;;5.05;1.70;;;19.50;99.90;;;;;;2034292;70;21466;-72
2021/08/07 12:10:17;;;;;;;4.75;1.40;;;19.60;99.90;;;;;;2034441;70;21420;-73
2021/08/07 12:12:44;;;;;;;1.65;1.52;;;19.50;99.90;;;;;;2034364;70;21143;-73
2021/08/07 12:15:10;;;;;;;4.20;1.60;;;19.60;99.90;;;;;;2034386;70;21062;-73
2021/08/07 12:17:36;;;;;;;2.83;1.80;;;19.80;99.90;;;;;;2034527;70;21144;-73
2021/08/07 12:20:02;;;;;;;1.95;1.32;;;19.80;99.90;;;;;;2034497;70;21039;-73
2021/08/07 12:22:28;;;;;;;2.20;1.45;;;20.00;99.90;;;;;;2034286;70;21177;-72
2021/08/07 12:24:54;;;;;;;2.60;1.47;;;20.20;99.90;;;;;;2034294;70;21075;-72
2021/08/07 12:27:20;;;;;;;5.30;1.35;;;20.20;99.90;;;;;;2034266;70;21047;-72
2021/08/07 12:29:47;;;;;;;11.22;1.35;;;20.30;99.90;;;;;;2015826;70;21067;-72
2021/08/07 12:32:13;;;;;;;5.12;1.70;;;20.20;99.90;;;;;;2032907;70;21043;-72
2021/08/07 12:34:39;;;;;;;2.22;1.57;;;20.20;99.90;;;;;;2034294;70;21555;-72
2021/08/07 12:37:05;;;;;;;4.00;1.40;;;20.10;99.90;;;;;;2025261;70;21177;-73
2021/08/07 12:39:31;;;;;;;2.02;1.30;;;20.10;99.90;;;;;;2033900;70;21112;-73